sensor_id;sensor_type;location;lat;lon;timestamp;temperature;humidity
64143;DHT22;50437;51.970;5.904;2023-09-18T00:00:25;18.40;99.90
64143;DHT22;50437;51.970;5.904;2023-09-18T00:02:51;18.40;99.90
64143;DHT22;50437;51.970;5.904;2023-09-18T00:05:17;18.40;99.90
64143;DHT22;50437;51.970;5.904;2023-09-18T00:07:43;18.40;99.90
64143;DHT22;50437;51.970;5.904;2023-09-18T00:10:10;18.30;99.90
64143;DHT22;50437;51.970;5.904;2023-09-18T00:12:39;18.30;99.90
64143;DHT22;50437;51.970;5.904;2023-09-18T00:15:05;18.30;99.90
64143;DHT22;50437;51.970;5.904;2023-09-18T00:17:31;18.40;99.90
64143;DHT22;50437;51.970;5.904;2023-09-18T00:19:58;18.40;99.90
64143;DHT22;50437;51.970;5.904;2023-09-18T00:22:24;18.30;99.90
64143;DHT22;50437;51.970;5.904;2023-09-18T00:24:50;18.40;99.90
64143;DHT22;50437;51.970;5.904;2023-09-18T00:27:16;18.40;99.90
64143;DHT22;50437;51.970;5.904;2023-09-18T00:29:42;18.40;99.90
64143;DHT22;50437;51.970;5.904;2023-09-18T00:32:08;18.30;99.90
64143;DHT22;50437;51.970;5.904;2023-09-18T00:34:35;18.30;99.90
64143;DHT22;50437;51.970;5.904;2023-09-18T00:37:01;18.30;99.90
64143;DHT22;50437;51.970;5.904;2023-09-18T00:39:28;18.40;99.90
64143;DHT22;50437;51.970;5.904;2023-09-18T00:41:55;18.40;99.90
64143;DHT22;50437;51.970;5.904;2023-09-18T00:44:21;18.40;99.90
64143;DHT22;50437;51.970;5.904;2023-09-18T00:46:48;18.40;99.90
64143;DHT22;50437;51.970;5.904;2023-09-18T00:49:14;18.50;99.90
64143;DHT22;50437;51.970;5.904;2023-09-18T00:51:40;18.40;99.90
64143;DHT22;50437;51.970;5.904;2023-09-18T00:54:06;18.40;99.90
64143;DHT22;50437;51.970;5.904;2023-09-18T00:56:33;18.40;99.90
64143;DHT22;50437;51.970;5.904;2023-09-18T00:58:59;18.40;99.90
64143;DHT22;50437;51.970;5.904;2023-09-18T01:01:27;18.50;99.90
64143;DHT22;50437;51.970;5.904;2023-09-18T01:03:53;18.50;99.90
64143;DHT22;50437;51.970;5.904;2023-09-18T01:06:19;18.40;99.90
64143;DHT22;50437;51.970;5.904;2023-09-18T01:08:47;18.40;99.90
64143;DHT22;50437;51.970;5.904;2023-09-18T01:11:21;18.40;99.90
64143;DHT22;50437;51.970;5.904;2023-09-18T01:14:37;18.40;99.90
64143;DHT22;50437;51.970;5.904;2023-09-18T01:16:41;18.30;99.90
64143;DHT22;50437;51.970;5.904;2023-09-18T01:19:11;18.40;99.90
64143;DHT22;50437;51.970;5.904;2023-09-18T01:21:40;18.40;99.90
64143;DHT22;50437;51.970;5.904;2023-09-18T01:24:06;18.40;99.90
64143;DHT22;50437;51.970;5.904;2023-09-18T01:26:32;18.40;99.90
64143;DHT22;50437;51.970;5.904;2023-09-18T01:28:58;18.40;99.90
64143;DHT22;50437;51.970;5.904;2023-09-18T01:31:26;18.40;99.90
64143;DHT22;50437;51.970;5.904;2023-09-18T01:33:58;18.40;99.90
64143;DHT22;50437;51.970;5.904;2023-09-18T01:36:27;18.40;99.90
64143;DHT22;50437;51.970;5.904;2023-09-18T01:38:54;18.40;99.90
64143;DHT22;50437;51.970;5.904;2023-09-18T01:41:20;18.40;99.90
64143;DHT22;50437;51.970;5.904;2023-09-18T01:43:47;18.40;99.90
64143;DHT22;50437;51.970;5.904;2023-09-18T01:46:13;18.40;99.90
64143;DHT22;50437;51.970;5.904;2023-09-18T01:48:44;18.40;99.90
64143;DHT22;50437;51.970;5.904;2023-09-18T01:51:13;18.40;99.90
64143;DHT22;50437;51.970;5.904;2023-09-18T01:53:39;18.40;99.90
64143;DHT22;50437;51.970;5.904;2023-09-18T01:56:05;18.40;99.90
64143;DHT22;50437;51.970;5.904;2023-09-18T01:58:31;18.40;99.90
64143;DHT22;50437;51.970;5.904;2023-09-18T02:01:00;18.40;99.90
64143;DHT22;50437;51.970;5.904;2023-09-18T02:03:27;18.50;99.90
64143;DHT22;50437;51.970;5.904;2023-09-18T02:05:53;18.40;99.90
64143;DHT22;50437;51.970;5.904;2023-09-18T02:08:19;18.50;99.90
64143;DHT22;50437;51.970;5.904;2023-09-18T02:10:48;18.50;99.90
64143;DHT22;50437;51.970;5.904;2023-09-18T02:13:14;18.50;99.90
64143;DHT22;50437;51.970;5.904;2023-09-18T02:15:40;18.50;99.90
64143;DHT22;50437;51.970;5.904;2023-09-18T02:18:08;18.60;99.90
64143;DHT22;50437;51.970;5.904;2023-09-18T02:20:40;18.60;99.90
64143;DHT22;50437;51.970;5.904;2023-09-18T02:23:06;18.60;99.90
64143;DHT22;50437;51.970;5.904;2023-09-18T02:25:32;18.60;99.90
64143;DHT22;50437;51.970;5.904;2023-09-18T02:27:59;18.60;99.90
64143;DHT22;50437;51.970;5.904;2023-09-18T02:30:25;18.60;99.90
64143;DHT22;50437;51.970;5.904;2023-09-18T02:32:53;18.60;99.90
64143;DHT22;50437;51.970;5.904;2023-09-18T02:35:19;18.60;99.90
64143;DHT22;50437;51.970;5.904;2023-09-18T02:37:47;18.60;99.90
64143;DHT22;50437;51.970;5.904;2023-09-18T02:40:13;18.60;99.90
64143;DHT22;50437;51.970;5.904;2023-09-18T02:42:39;18.60;99.90
64143;DHT22;50437;51.970;5.904;2023-09-18T02:45:05;18.60;99.90
64143;DHT22;50437;51.970;5.904;2023-09-18T02:47:34;18.60;99.90
64143;DHT22;50437;51.970;5.904;2023-09-18T02:50:02;18.60;99.90
64143;DHT22;50437;51.970;5.904;2023-09-18T02:52:30;18.60;99.90
64143;DHT22;50437;51.970;5.904;2023-09-18T02:54:56;18.60;99.90
64143;DHT22;50437;51.970;5.904;2023-09-18T02:57:22;18.60;99.90
64143;DHT22;50437;51.970;5.904;2023-09-18T02:59:48;18.60;99.90
64143;DHT22;50437;51.970;5.904;2023-09-18T03:02:14;18.60;99.90
64143;DHT22;50437;51.970;5.904;2023-09-18T03:04:40;18.60;99.90
64143;DHT22;50437;51.970;5.904;2023-09-18T03:07:09;18.60;99.90
64143;DHT22;50437;51.970;5.904;2023-09-18T03:09:53;18.60;99.90
64143;DHT22;50437;51.970;5.904;2023-09-18T03:12:20;18.60;99.90
64143;DHT22;50437;51.970;5.904;2023-09-18T03:14:48;18.60;99.90
64143;DHT22;50437;51.970;5.904;2023-09-18T03:17:14;18.60;99.90
64143;DHT22;50437;51.970;5.904;2023-09-18T03:19:40;18.50;99.90
64143;DHT22;50437;51.970;5.904;2023-09-18T03:22:06;18.50;99.90
64143;DHT22;50437;51.970;5.904;2023-09-18T03:24:32;18.60;99.90
64143;DHT22;50437;51.970;5.904;2023-09-18T03:26:58;18.50;99.90
64143;DHT22;50437;51.970;5.904;2023-09-18T03:29:27;18.50;99.90
64143;DHT22;50437;51.970;5.904;2023-09-18T03:31:56;18.50;99.90
64143;DHT22;50437;51.970;5.904;2023-09-18T03:34:24;18.60;99.90
64143;DHT22;50437;51.970;5.904;2023-09-18T03:36:54;18.60;99.90
64143;DHT22;50437;51.970;5.904;2023-09-18T03:39:20;18.60;99.90
64143;DHT22;50437;51.970;5.904;2023-09-18T03:41:47;18.60;99.90
64143;DHT22;50437;51.970;5.904;2023-09-18T03:44:15;18.70;99.90
64143;DHT22;50437;51.970;5.904;2023-09-18T03:46:42;18.70;99.90
64143;DHT22;50437;51.970;5.904;2023-09-18T03:49:08;18.60;99.90
64143;DHT22;50437;51.970;5.904;2023-09-18T03:51:36;18.60;99.90
64143;DHT22;50437;51.970;5.904;2023-09-18T03:54:14;18.60;99.90
64143;DHT22;50437;51.970;5.904;2023-09-18T03:56:44;18.60;99.90
64143;DHT22;50437;51.970;5.904;2023-09-18T03:59:12;18.60;99.90
64143;DHT22;50437;51.970;5.904;2023-09-18T04:01:39;18.70;99.90
64143;DHT22;50437;51.970;5.904;2023-09-18T04:04:06;18.70;99.90
64143;DHT22;50437;51.970;5.904;2023-09-18T04:06:40;18.70;99.90
64143;DHT22;50437;51.970;5.904;2023-09-18T04:09:07;18.70;99.90
64143;DHT22;50437;51.970;5.904;2023-09-18T04:11:33;18.70;99.90
64143;DHT22;50437;51.970;5.904;2023-09-18T04:14:01;18.70;99.90
64143;DHT22;50437;51.970;5.904;2023-09-18T04:16:28;18.70;99.90
64143;DHT22;50437;51.970;5.904;2023-09-18T04:18:56;18.70;99.90
64143;DHT22;50437;51.970;5.904;2023-09-18T04:21:23;18.60;99.90
64143;DHT22;50437;51.970;5.904;2023-09-18T04:23:52;18.70;99.90
64143;DHT22;50437;51.970;5.904;2023-09-18T04:26:25;18.70;99.90
64143;DHT22;50437;51.970;5.904;2023-09-18T04:28:59;18.60;99.90
64143;DHT22;50437;51.970;5.904;2023-09-18T04:31:26;18.60;99.90
64143;DHT22;50437;51.970;5.904;2023-09-18T04:33:53;18.60;99.90
64143;DHT22;50437;51.970;5.904;2023-09-18T04:36:19;18.60;99.90
64143;DHT22;50437;51.970;5.904;2023-09-18T04:38:48;18.60;99.90
64143;DHT22;50437;51.970;5.904;2023-09-18T04:41:15;18.60;99.90
64143;DHT22;50437;51.970;5.904;2023-09-18T04:43:42;18.60;99.90
64143;DHT22;50437;51.970;5.904;2023-09-18T04:46:11;18.60;99.90
64143;DHT22;50437;51.970;5.904;2023-09-18T04:48:37;18.70;99.90
64143;DHT22;50437;51.970;5.904;2023-09-18T04:51:04;18.70;99.90
64143;DHT22;50437;51.970;5.904;2023-09-18T04:53:31;18.80;99.90
64143;DHT22;50437;51.970;5.904;2023-09-18T04:56:02;18.80;99.90
64143;DHT22;50437;51.970;5.904;2023-09-18T04:58:29;18.90;99.90
64143;DHT22;50437;51.970;5.904;2023-09-18T05:00:58;18.90;99.90
64143;DHT22;50437;51.970;5.904;2023-09-18T05:03:33;19.00;99.90
64143;DHT22;50437;51.970;5.904;2023-09-18T05:06:04;19.10;99.90
64143;DHT22;50437;51.970;5.904;2023-09-18T05:08:30;19.20;99.90
64143;DHT22;50437;51.970;5.904;2023-09-18T05:10:57;19.20;99.90
64143;DHT22;50437;51.970;5.904;2023-09-18T05:13:23;19.20;99.90
64143;DHT22;50437;51.970;5.904;2023-09-18T05:15:49;19.20;99.90
64143;DHT22;50437;51.970;5.904;2023-09-18T05:18:15;19.30;99.90
64143;DHT22;50437;51.970;5.904;2023-09-18T05:20:42;19.30;99.90
64143;DHT22;50437;51.970;5.904;2023-09-18T05:23:08;19.20;99.90
64143;DHT22;50437;51.970;5.904;2023-09-18T05:25:35;19.20;99.90
64143;DHT22;50437;51.970;5.904;2023-09-18T05:28:04;19.20;99.90
64143;DHT22;50437;51.970;5.904;2023-09-18T05:30:32;19.20;99.90
64143;DHT22;50437;51.970;5.904;2023-09-18T05:33:00;19.30;99.90
64143;DHT22;50437;51.970;5.904;2023-09-18T05:35:34;19.20;99.90
64143;DHT22;50437;51.970;5.904;2023-09-18T05:38:03;19.20;99.90
64143;DHT22;50437;51.970;5.904;2023-09-18T05:40:29;19.20;99.90
64143;DHT22;50437;51.970;5.904;2023-09-18T05:42:55;19.20;99.90
64143;DHT22;50437;51.970;5.904;2023-09-18T05:45:22;19.20;99.90
64143;DHT22;50437;51.970;5.904;2023-09-18T05:47:51;19.20;99.90
64143;DHT22;50437;51.970;5.904;2023-09-18T05:50:17;19.20;99.90
64143;DHT22;50437;51.970;5.904;2023-09-18T05:52:43;19.20;99.90
64143;DHT22;50437;51.970;5.904;2023-09-18T05:55:10;19.20;99.90
64143;DHT22;50437;51.970;5.904;2023-09-18T05:57:36;19.10;99.90
64143;DHT22;50437;51.970;5.904;2023-09-18T06:00:03;19.10;99.90
64143;DHT22;50437;51.970;5.904;2023-09-18T06:02:37;19.10;99.90
64143;DHT22;50437;51.970;5.904;2023-09-18T06:05:03;19.20;99.90
64143;DHT22;50437;51.970;5.904;2023-09-18T06:07:32;19.20;99.90
64143;DHT22;50437;51.970;5.904;2023-09-18T06:09:58;19.10;99.90
64143;DHT22;50437;51.970;5.904;2023-09-18T06:12:24;19.20;99.90
64143;DHT22;50437;51.970;5.904;2023-09-18T06:14:51;19.10;99.90
64143;DHT22;50437;51.970;5.904;2023-09-18T06:17:18;19.20;99.90
64143;DHT22;50437;51.970;5.904;2023-09-18T06:19:44;19.20;99.90
64143;DHT22;50437;51.970;5.904;2023-09-18T06:22:11;19.20;99.90
64143;DHT22;50437;51.970;5.904;2023-09-18T06:24:37;19.20;99.90
64143;DHT22;50437;51.970;5.904;2023-09-18T06:27:03;19.30;99.90
64143;DHT22;50437;51.970;5.904;2023-09-18T06:29:34;19.40;99.90
64143;DHT22;50437;51.970;5.904;2023-09-18T06:32:02;19.40;99.90
64143;DHT22;50437;51.970;5.904;2023-09-18T06:34:30;19.50;99.90
64143;DHT22;50437;51.970;5.904;2023-09-18T06:36:56;19.50;99.90
64143;DHT22;50437;51.970;5.904;2023-09-18T06:39:22;19.60;99.90
64143;DHT22;50437;51.970;5.904;2023-09-18T06:41:52;19.50;99.90
64143;DHT22;50437;51.970;5.904;2023-09-18T06:44:20;19.50;99.90
64143;DHT22;50437;51.970;5.904;2023-09-18T06:46:47;19.50;99.90
64143;DHT22;50437;51.970;5.904;2023-09-18T06:49:13;19.50;99.90
64143;DHT22;50437;51.970;5.904;2023-09-18T06:51:39;19.40;99.90
64143;DHT22;50437;51.970;5.904;2023-09-18T06:54:05;19.50;99.90
64143;DHT22;50437;51.970;5.904;2023-09-18T06:56:31;19.50;99.90
64143;DHT22;50437;51.970;5.904;2023-09-18T06:58:57;19.50;99.90
64143;DHT22;50437;51.970;5.904;2023-09-18T07:01:23;19.50;99.90
64143;DHT22;50437;51.970;5.904;2023-09-18T07:03:51;19.50;99.90
64143;DHT22;50437;51.970;5.904;2023-09-18T07:06:17;19.60;99.90
64143;DHT22;50437;51.970;5.904;2023-09-18T07:08:47;19.60;99.90
64143;DHT22;50437;51.970;5.904;2023-09-18T07:11:17;19.70;99.90
64143;DHT22;50437;51.970;5.904;2023-09-18T07:13:43;19.70;99.90
64143;DHT22;50437;51.970;5.904;2023-09-18T07:16:09;19.80;99.90
64143;DHT22;50437;51.970;5.904;2023-09-18T07:18:36;19.90;99.90
64143;DHT22;50437;51.970;5.904;2023-09-18T07:21:02;19.90;99.90
64143;DHT22;50437;51.970;5.904;2023-09-18T07:23:28;19.90;99.90
64143;DHT22;50437;51.970;5.904;2023-09-18T07:25:54;19.80;99.90
64143;DHT22;50437;51.970;5.904;2023-09-18T07:31:28;19.90;99.90
64143;DHT22;50437;51.970;5.904;2023-09-18T07:34:10;19.90;99.90
64143;DHT22;50437;51.970;5.904;2023-09-18T07:36:56;20.00;99.90
64143;DHT22;50437;51.970;5.904;2023-09-18T07:39:25;20.00;99.90
64143;DHT22;50437;51.970;5.904;2023-09-18T07:43:04;20.00;99.90
64143;DHT22;50437;51.970;5.904;2023-09-18T07:46:21;20.00;99.90
64143;DHT22;50437;51.970;5.904;2023-09-18T07:48:50;20.00;99.90
64143;DHT22;50437;51.970;5.904;2023-09-18T07:51:19;20.00;99.90
64143;DHT22;50437;51.970;5.904;2023-09-18T07:53:49;20.00;99.90
64143;DHT22;50437;51.970;5.904;2023-09-18T07:56:16;20.00;99.90
64143;DHT22;50437;51.970;5.904;2023-09-18T07:59:45;20.00;99.90
64143;DHT22;50437;51.970;5.904;2023-09-18T08:03:05;19.90;99.90
64143;DHT22;50437;51.970;5.904;2023-09-18T08:12:32;20.00;99.90
64143;DHT22;50437;51.970;5.904;2023-09-18T08:15:05;20.10;99.90
64143;DHT22;50437;51.970;5.904;2023-09-18T08:18:10;20.20;99.90
64143;DHT22;50437;51.970;5.904;2023-09-18T08:20:42;20.30;99.90
64143;DHT22;50437;51.970;5.904;2023-09-18T08:23:23;20.30;99.90
64143;DHT22;50437;51.970;5.904;2023-09-18T08:26:02;20.40;99.90
64143;DHT22;50437;51.970;5.904;2023-09-18T08:29:32;20.40;99.90
64143;DHT22;50437;51.970;5.904;2023-09-18T08:32:24;20.50;99.90
64143;DHT22;50437;51.970;5.904;2023-09-18T08:34:51;20.40;99.90
64143;DHT22;50437;51.970;5.904;2023-09-18T08:37:18;20.40;99.90
64143;DHT22;50437;51.970;5.904;2023-09-18T08:40:04;20.40;99.90
64143;DHT22;50437;51.970;5.904;2023-09-18T08:43:07;20.50;99.90
64143;DHT22;50437;51.970;5.904;2023-09-18T08:45:51;20.70;99.90
64143;DHT22;50437;51.970;5.904;2023-09-18T08:48:19;22.00;99.90
64143;DHT22;50437;51.970;5.904;2023-09-18T08:50:48;21.80;99.90
64143;DHT22;50437;51.970;5.904;2023-09-18T08:53:30;21.40;99.90
64143;DHT22;50437;51.970;5.904;2023-09-18T08:56:03;21.20;99.90
64143;DHT22;50437;51.970;5.904;2023-09-18T08:58:54;21.00;99.90
64143;DHT22;50437;51.970;5.904;2023-09-18T09:01:43;21.00;99.90
64143;DHT22;50437;51.970;5.904;2023-09-18T09:04:11;21.00;99.90
64143;DHT22;50437;51.970;5.904;2023-09-18T09:07:19;21.20;99.90
64143;DHT22;50437;51.970;5.904;2023-09-18T09:10:16;21.30;99.90
64143;DHT22;50437;51.970;5.904;2023-09-18T09:13:15;21.30;99.90
64143;DHT22;50437;51.970;5.904;2023-09-18T09:15:47;21.20;99.90
64143;DHT22;50437;51.970;5.904;2023-09-18T09:18:29;21.30;99.90
64143;DHT22;50437;51.970;5.904;2023-09-18T09:21:37;21.20;99.90
64143;DHT22;50437;51.970;5.904;2023-09-18T09:24:43;21.30;99.90
64143;DHT22;50437;51.970;5.904;2023-09-18T09:31:09;22.40;99.90
64143;DHT22;50437;51.970;5.904;2023-09-18T09:34:02;22.20;99.90
64143;DHT22;50437;51.970;5.904;2023-09-18T09:37:16;23.40;99.90
64143;DHT22;50437;51.970;5.904;2023-09-18T09:39:51;24.10;99.90
64143;DHT22;50437;51.970;5.904;2023-09-18T09:42:43;25.10;99.90
64143;DHT22;50437;51.970;5.904;2023-09-18T09:45:12;25.30;99.90
64143;DHT22;50437;51.970;5.904;2023-09-18T09:47:43;25.10;99.90
64143;DHT22;50437;51.970;5.904;2023-09-18T09:50:11;25.20;99.90
64143;DHT22;50437;51.970;5.904;2023-09-18T09:52:43;25.30;99.90
64143;DHT22;50437;51.970;5.904;2023-09-18T09:55:33;25.70;99.90
64143;DHT22;50437;51.970;5.904;2023-09-18T09:58:10;25.70;99.90
64143;DHT22;50437;51.970;5.904;2023-09-18T10:00:43;26.20;99.90
64143;DHT22;50437;51.970;5.904;2023-09-18T10:03:28;27.00;99.90
64143;DHT22;50437;51.970;5.904;2023-09-18T10:05:58;28.40;99.90
64143;DHT22;50437;51.970;5.904;2023-09-18T10:08:33;28.80;99.90
64143;DHT22;50437;51.970;5.904;2023-09-18T10:11:06;28.70;99.90
64143;DHT22;50437;51.970;5.904;2023-09-18T10:16:30;28.50;99.90
64143;DHT22;50437;51.970;5.904;2023-09-18T10:19:40;27.90;99.90
64143;DHT22;50437;51.970;5.904;2023-09-18T10:24:47;26.00;99.90
64143;DHT22;50437;51.970;5.904;2023-09-18T10:27:19;24.90;99.90
64143;DHT22;50437;51.970;5.904;2023-09-18T10:33:31;23.30;99.90
64143;DHT22;50437;51.970;5.904;2023-09-18T10:36:04;23.00;99.90
64143;DHT22;50437;51.970;5.904;2023-09-18T10:38:31;23.10;99.90
64143;DHT22;50437;51.970;5.904;2023-09-18T10:41:02;23.00;99.90
64143;DHT22;50437;51.970;5.904;2023-09-18T10:43:46;23.20;99.90
64143;DHT22;50437;51.970;5.904;2023-09-18T10:46:20;23.50;99.90
64143;DHT22;50437;51.970;5.904;2023-09-18T10:48:46;23.30;99.90
64143;DHT22;50437;51.970;5.904;2023-09-18T10:51:14;22.90;99.90
64143;DHT22;50437;51.970;5.904;2023-09-18T10:53:44;22.90;99.90
64143;DHT22;50437;51.970;5.904;2023-09-18T10:56:31;22.70;99.90
64143;DHT22;50437;51.970;5.904;2023-09-18T10:59:24;22.60;99.90
64143;DHT22;50437;51.970;5.904;2023-09-18T11:01:50;22.30;99.90
64143;DHT22;50437;51.970;5.904;2023-09-18T11:04:20;22.30;99.90
64143;DHT22;50437;51.970;5.904;2023-09-18T11:07:21;22.30;99.90
64143;DHT22;50437;51.970;5.904;2023-09-18T11:10:34;22.40;99.90
64143;DHT22;50437;51.970;5.904;2023-09-18T11:13:06;22.40;99.90
64143;DHT22;50437;51.970;5.904;2023-09-18T11:15:42;22.20;99.90
64143;DHT22;50437;51.970;5.904;2023-09-18T11:18:19;22.20;99.90
64143;DHT22;50437;51.970;5.904;2023-09-18T11:21:05;22.30;99.90
64143;DHT22;50437;51.970;5.904;2023-09-18T11:23:36;23.20;99.90
64143;DHT22;50437;51.970;5.904;2023-09-18T11:26:04;24.10;99.90
64143;DHT22;50437;51.970;5.904;2023-09-18T11:28:31;23.90;99.90
64143;DHT22;50437;51.970;5.904;2023-09-18T11:30:59;23.40;99.90
64143;DHT22;50437;51.970;5.904;2023-09-18T11:33:38;23.40;99.90
64143;DHT22;50437;51.970;5.904;2023-09-18T11:36:34;23.10;99.90
64143;DHT22;50437;51.970;5.904;2023-09-18T11:39:01;22.70;99.90
64143;DHT22;50437;51.970;5.904;2023-09-18T11:41:46;22.10;99.90
64143;DHT22;50437;51.970;5.904;2023-09-18T11:47:28;21.70;99.90
64143;DHT22;50437;51.970;5.904;2023-09-18T11:49:59;21.60;99.90
64143;DHT22;50437;51.970;5.904;2023-09-18T11:52:29;21.60;99.90
64143;DHT22;50437;51.970;5.904;2023-09-18T11:54:56;21.60;99.90
64143;DHT22;50437;51.970;5.904;2023-09-18T11:57:24;22.20;99.90
64143;DHT22;50437;51.970;5.904;2023-09-18T12:00:20;23.20;99.90
64143;DHT22;50437;51.970;5.904;2023-09-18T12:03:17;23.80;99.90
64143;DHT22;50437;51.970;5.904;2023-09-18T12:06:20;24.40;99.90
64143;DHT22;50437;51.970;5.904;2023-09-18T12:09:15;24.10;99.90
64143;DHT22;50437;51.970;5.904;2023-09-18T12:11:43;23.90;99.90
64143;DHT22;50437;51.970;5.904;2023-09-18T12:14:18;23.50;99.90
64143;DHT22;50437;51.970;5.904;2023-09-18T12:16:48;23.70;99.90
64143;DHT22;50437;51.970;5.904;2023-09-18T12:19:49;23.60;99.90
64143;DHT22;50437;51.970;5.904;2023-09-18T12:22:27;23.80;99.90
64143;DHT22;50437;51.970;5.904;2023-09-18T12:25:22;24.10;99.90
64143;DHT22;50437;51.970;5.904;2023-09-18T12:28:24;24.00;99.90
64143;DHT22;50437;51.970;5.904;2023-09-18T12:35:26;24.60;99.90
64143;DHT22;50437;51.970;5.904;2023-09-18T12:42:24;24.40;99.90
64143;DHT22;50437;51.970;5.904;2023-09-18T12:45:33;24.20;99.90
64143;DHT22;50437;51.970;5.904;2023-09-18T12:52:21;24.00;99.90
64143;DHT22;50437;51.970;5.904;2023-09-18T12:55:06;23.90;99.90
64143;DHT22;50437;51.970;5.904;2023-09-18T12:57:42;23.80;99.90
64143;DHT22;50437;51.970;5.904;2023-09-18T13:00:13;24.00;99.90
64143;DHT22;50437;51.970;5.904;2023-09-18T13:10:15;24.20;99.90
64143;DHT22;50437;51.970;5.904;2023-09-18T13:13:56;24.20;99.90
64143;DHT22;50437;51.970;5.904;2023-09-18T13:17:27;24.10;99.90
64143;DHT22;50437;51.970;5.904;2023-09-18T13:23:47;24.10;99.90
64143;DHT22;50437;51.970;5.904;2023-09-18T13:27:34;24.10;99.90
64143;DHT22;50437;51.970;5.904;2023-09-18T13:30:37;24.40;99.90
64143;DHT22;50437;51.970;5.904;2023-09-18T13:33:20;24.40;99.90
64143;DHT22;50437;51.970;5.904;2023-09-18T13:36:13;24.00;99.90
64143;DHT22;50437;51.970;5.904;2023-09-18T13:39:09;23.90;99.90
64143;DHT22;50437;51.970;5.904;2023-09-18T13:44:59;23.90;99.90
64143;DHT22;50437;51.970;5.904;2023-09-18T13:48:17;24.20;99.90
64143;DHT22;50437;51.970;5.904;2023-09-18T13:51:11;24.40;99.90
64143;DHT22;50437;51.970;5.904;2023-09-18T13:54:01;24.50;99.90
64143;DHT22;50437;51.970;5.904;2023-09-18T13:56:58;24.50;99.90
64143;DHT22;50437;51.970;5.904;2023-09-18T13:59:45;24.60;99.90
64143;DHT22;50437;51.970;5.904;2023-09-18T14:02:17;24.50;99.90
64143;DHT22;50437;51.970;5.904;2023-09-18T14:05:05;24.50;99.90
64143;DHT22;50437;51.970;5.904;2023-09-18T14:08:07;24.70;99.90
64143;DHT22;50437;51.970;5.904;2023-09-18T14:10:36;24.60;99.90
64143;DHT22;50437;51.970;5.904;2023-09-18T14:13:10;24.70;99.90
64143;DHT22;50437;51.970;5.904;2023-09-18T14:15:48;24.50;99.90
64143;DHT22;50437;51.970;5.904;2023-09-18T14:18:33;24.30;99.90
64143;DHT22;50437;51.970;5.904;2023-09-18T14:21:14;24.30;99.90
64143;DHT22;50437;51.970;5.904;2023-09-18T14:23:44;24.30;99.90
64143;DHT22;50437;51.970;5.904;2023-09-18T14:26:39;24.30;99.90
64143;DHT22;50437;51.970;5.904;2023-09-18T14:32:03;24.40;99.90
64143;DHT22;50437;51.970;5.904;2023-09-18T14:34:49;24.40;99.90
64143;DHT22;50437;51.970;5.904;2023-09-18T14:37:16;24.30;99.90
64143;DHT22;50437;51.970;5.904;2023-09-18T14:39:52;24.10;99.90
64143;DHT22;50437;51.970;5.904;2023-09-18T14:42:25;23.80;99.90
64143;DHT22;50437;51.970;5.904;2023-09-18T14:45:04;23.50;99.90
64143;DHT22;50437;51.970;5.904;2023-09-18T14:48:31;23.50;99.90
64143;DHT22;50437;51.970;5.904;2023-09-18T14:51:04;23.60;99.90
64143;DHT22;50437;51.970;5.904;2023-09-18T14:53:33;23.60;99.90
64143;DHT22;50437;51.970;5.904;2023-09-18T14:56:15;23.60;99.90
64143;DHT22;50437;51.970;5.904;2023-09-18T14:59:12;23.60;99.90
64143;DHT22;50437;51.970;5.904;2023-09-18T15:01:52;23.60;99.90
64143;DHT22;50437;51.970;5.904;2023-09-18T15:04:18;23.50;99.90
64143;DHT22;50437;51.970;5.904;2023-09-18T15:06:45;23.40;99.90
64143;DHT22;50437;51.970;5.904;2023-09-18T15:09:11;23.40;99.90
64143;DHT22;50437;51.970;5.904;2023-09-18T15:11:37;23.30;99.90
64143;DHT22;50437;51.970;5.904;2023-09-18T15:14:47;23.30;99.90
64143;DHT22;50437;51.970;5.904;2023-09-18T15:17:50;23.40;99.90
64143;DHT22;50437;51.970;5.904;2023-09-18T15:20:28;23.40;99.90
64143;DHT22;50437;51.970;5.904;2023-09-18T15:22:56;23.30;99.90
64143;DHT22;50437;51.970;5.904;2023-09-18T15:25:29;23.20;99.90
64143;DHT22;50437;51.970;5.904;2023-09-18T15:31:03;23.00;99.90
64143;DHT22;50437;51.970;5.904;2023-09-18T15:33:29;23.00;99.90
64143;DHT22;50437;51.970;5.904;2023-09-18T15:36:01;23.00;99.90
64143;DHT22;50437;51.970;5.904;2023-09-18T15:38:31;22.80;99.90
64143;DHT22;50437;51.970;5.904;2023-09-18T15:41:04;22.70;99.90
64143;DHT22;50437;51.970;5.904;2023-09-18T15:43:37;20.70;99.90
64143;DHT22;50437;51.970;5.904;2023-09-18T15:50:23;17.80;99.90
64143;DHT22;50437;51.970;5.904;2023-09-18T15:52:49;17.60;99.90
64143;DHT22;50437;51.970;5.904;2023-09-18T15:55:19;17.50;99.90
64143;DHT22;50437;51.970;5.904;2023-09-18T15:57:45;17.40;99.90
64143;DHT22;50437;51.970;5.904;2023-09-18T16:00:13;17.40;99.90
64143;DHT22;50437;51.970;5.904;2023-09-18T16:02:39;17.50;99.90
64143;DHT22;50437;51.970;5.904;2023-09-18T16:05:05;17.50;99.90
64143;DHT22;50437;51.970;5.904;2023-09-18T16:07:33;17.40;99.90
64143;DHT22;50437;51.970;5.904;2023-09-18T16:10:01;17.40;99.90
64143;DHT22;50437;51.970;5.904;2023-09-18T16:12:27;17.30;99.90
64143;DHT22;50437;51.970;5.904;2023-09-18T16:14:54;17.40;99.90
64143;DHT22;50437;51.970;5.904;2023-09-18T16:17:20;17.80;99.90
64143;DHT22;50437;51.970;5.904;2023-09-18T16:19:46;17.70;99.90
64143;DHT22;50437;51.970;5.904;2023-09-18T16:22:12;17.60;99.90
64143;DHT22;50437;51.970;5.904;2023-09-18T16:24:48;17.80;99.90
64143;DHT22;50437;51.970;5.904;2023-09-18T16:27:23;17.60;99.90
64143;DHT22;50437;51.970;5.904;2023-09-18T16:29:49;17.70;99.90
64143;DHT22;50437;51.970;5.904;2023-09-18T16:32:15;17.80;99.90
64143;DHT22;50437;51.970;5.904;2023-09-18T16:34:41;17.90;99.90
64143;DHT22;50437;51.970;5.904;2023-09-18T16:37:08;17.90;99.90
64143;DHT22;50437;51.970;5.904;2023-09-18T16:39:35;17.90;99.90
64143;DHT22;50437;51.970;5.904;2023-09-18T16:42:04;17.90;99.90
64143;DHT22;50437;51.970;5.904;2023-09-18T16:44:33;17.80;99.90
64143;DHT22;50437;51.970;5.904;2023-09-18T16:50:00;17.80;99.90
64143;DHT22;50437;51.970;5.904;2023-09-18T16:52:32;17.90;99.90
64143;DHT22;50437;51.970;5.904;2023-09-18T16:54:58;17.90;99.90
64143;DHT22;50437;51.970;5.904;2023-09-18T16:57:30;17.90;99.90
64143;DHT22;50437;51.970;5.904;2023-09-18T16:59:58;17.90;99.90
64143;DHT22;50437;51.970;5.904;2023-09-18T17:04:56;18.00;99.90
64143;DHT22;50437;51.970;5.904;2023-09-18T17:07:22;18.00;99.90
64143;DHT22;50437;51.970;5.904;2023-09-18T17:09:58;18.10;99.90
64143;DHT22;50437;51.970;5.904;2023-09-18T17:12:33;18.10;99.90
64143;DHT22;50437;51.970;5.904;2023-09-18T17:19:04;18.30;99.90
64143;DHT22;50437;51.970;5.904;2023-09-18T17:21:32;18.30;99.90
64143;DHT22;50437;51.970;5.904;2023-09-18T17:25:38;18.10;99.90
64143;DHT22;50437;51.970;5.904;2023-09-18T17:28:22;18.10;99.90